sensor_id;sensor_type;location;lat;lon;timestamp;pressure;altitude;pressure_sealevel;temperature;humidity
60319;BME280;46163;52.306;5.634;2022-07-23T00:01:31;101843.53;;;22.44;55.61
60319;BME280;46163;52.306;5.634;2022-07-23T00:03:57;101838.34;;;22.42;55.75
60319;BME280;46163;52.306;5.634;2022-07-23T00:06:24;101840.47;;;22.40;55.99
60319;BME280;46163;52.306;5.634;2022-07-23T00:08:50;101836.38;;;22.38;55.96
60319;BME280;46163;52.306;5.634;2022-07-23T00:11:17;101834.75;;;22.37;55.88
60319;BME280;46163;52.306;5.634;2022-07-23T00:13:43;101836.38;;;22.38;55.94
60319;BME280;46163;52.306;5.634;2022-07-23T00:16:09;101835.56;;;22.37;55.93
60319;BME280;46163;52.306;5.634;2022-07-23T00:18:35;101836.91;;;22.35;56.04
60319;BME280;46163;52.306;5.634;2022-07-23T00:21:00;101832.78;;;22.32;55.88
60319;BME280;46163;52.306;5.634;2022-07-23T00:23:26;101824.91;;;22.31;56.04
60319;BME280;46163;52.306;5.634;2022-07-23T00:25:54;101826.81;;;22.30;55.95
60319;BME280;46163;52.306;5.634;2022-07-23T00:28:20;101815.97;;;22.30;55.65
60319;BME280;46163;52.306;5.634;2022-07-23T00:30:46;101809.91;;;22.23;55.84
60319;BME280;46163;52.306;5.634;2022-07-23T00:33:11;101811.06;;;22.27;56.00
60319;BME280;46163;52.306;5.634;2022-07-23T00:35:39;101812.16;;;22.26;56.13
60319;BME280;46163;52.306;5.634;2022-07-23T00:38:09;101808.03;;;22.23;55.91
60319;BME280;46163;52.306;5.634;2022-07-23T00:40:36;101811.25;;;22.20;56.11
60319;BME280;46163;52.306;5.634;2022-07-23T00:43:04;101812.06;;;22.21;55.93
60319;BME280;46163;52.306;5.634;2022-07-23T00:45:30;101801.19;;;22.16;55.72
60319;BME280;46163;52.306;5.634;2022-07-23T00:47:56;101802.00;;;22.16;56.20
60319;BME280;46163;52.306;5.634;2022-07-23T00:50:21;101798.22;;;22.17;55.85
60319;BME280;46163;52.306;5.634;2022-07-23T00:52:47;101802.25;;;22.15;56.15
60319;BME280;46163;52.306;5.634;2022-07-23T00:55:13;101805.47;;;22.12;55.97
60319;BME280;46163;52.306;5.634;2022-07-23T00:57:40;101810.88;;;22.12;55.96
60319;BME280;46163;52.306;5.634;2022-07-23T01:00:08;101805.47;;;22.12;56.33
60319;BME280;46163;52.306;5.634;2022-07-23T01:02:34;101793.25;;;22.09;55.84
60319;BME280;46163;52.306;5.634;2022-07-23T01:04:59;101763.16;;;21.89;56.19
60319;BME280;46163;52.306;5.634;2022-07-23T01:07:25;101784.97;;;21.99;56.00
60319;BME280;46163;52.306;5.634;2022-07-23T01:09:51;101795.88;;;22.04;56.41
60319;BME280;46163;52.306;5.634;2022-07-23T01:12:17;101793.97;;;22.05;56.15
60319;BME280;46163;52.306;5.634;2022-07-23T01:14:43;101791.50;;;22.03;56.41
60319;BME280;46163;52.306;5.634;2022-07-23T01:17:08;101786.34;;;22.01;56.44
60319;BME280;46163;52.306;5.634;2022-07-23T01:19:33;101786.34;;;22.01;56.28
60319;BME280;46163;52.306;5.634;2022-07-23T01:22:02;101780.38;;;21.99;56.39
60319;BME280;46163;52.306;5.634;2022-07-23T01:24:27;101777.94;;;21.98;56.59
60319;BME280;46163;52.306;5.634;2022-07-23T01:26:53;101786.28;;;21.96;56.20
60319;BME280;46163;52.306;5.634;2022-07-23T01:29:18;101781.94;;;21.95;56.59
60319;BME280;46163;52.306;5.634;2022-07-23T01:31:46;101789.25;;;21.95;56.35
60319;BME280;46163;52.306;5.634;2022-07-23T01:34:12;101781.91;;;21.90;56.27
60319;BME280;46163;52.306;5.634;2022-07-23T01:36:37;101784.03;;;21.88;56.27
60319;BME280;46163;52.306;5.634;2022-07-23T01:39:04;101795.19;;;21.92;56.31
60319;BME280;46163;52.306;5.634;2022-07-23T01:41:30;101791.66;;;21.91;56.48
60319;BME280;46163;52.306;5.634;2022-07-23T01:43:55;101776.72;;;21.89;56.29
60319;BME280;46163;52.306;5.634;2022-07-23T01:46:21;101783.78;;;21.90;56.46
60319;BME280;46163;52.306;5.634;2022-07-23T01:48:46;101780.50;;;21.88;56.19
60319;BME280;46163;52.306;5.634;2022-07-23T01:51:12;101787.00;;;21.87;56.19
60319;BME280;46163;52.306;5.634;2022-07-23T01:53:38;101769.28;;;21.79;56.27
60319;BME280;46163;52.306;5.634;2022-07-23T01:56:03;101752.09;;;21.68;56.11
60319;BME280;46163;52.306;5.634;2022-07-23T01:58:29;101773.94;;;21.84;56.33
60319;BME280;46163;52.306;5.634;2022-07-23T02:00:55;101776.09;;;21.82;56.55
60319;BME280;46163;52.306;5.634;2022-07-23T02:03:21;101760.56;;;21.72;56.60
60319;BME280;46163;52.306;5.634;2022-07-23T02:05:46;101777.19;;;21.81;56.52
60319;BME280;46163;52.306;5.634;2022-07-23T02:08:12;101774.13;;;21.77;56.30
60319;BME280;46163;52.306;5.634;2022-07-23T02:10:37;101768.97;;;21.76;56.46
60319;BME280;46163;52.306;5.634;2022-07-23T02:13:03;101762.19;;;21.73;56.45
60319;BME280;46163;52.306;5.634;2022-07-23T02:15:28;101775.47;;;21.75;56.41
60319;BME280;46163;52.306;5.634;2022-07-23T02:17:54;101769.25;;;21.74;56.59
60319;BME280;46163;52.306;5.634;2022-07-23T02:20:20;101768.41;;;21.73;56.26
60319;BME280;46163;52.306;5.634;2022-07-23T02:22:51;101760.56;;;21.72;56.32
60319;BME280;46163;52.306;5.634;2022-07-23T02:25:17;101750.16;;;21.64;56.78
60319;BME280;46163;52.306;5.634;2022-07-23T02:27:43;101763.75;;;21.69;56.35
60319;BME280;46163;52.306;5.634;2022-07-23T02:30:09;101768.09;;;21.70;56.23
60319;BME280;46163;52.306;5.634;2022-07-23T02:32:36;101769.16;;;21.69;56.45
60319;BME280;46163;52.306;5.634;2022-07-23T02:35:03;101764.00;;;21.67;56.57
60319;BME280;46163;52.306;5.634;2022-07-23T02:37:29;101770.50;;;21.66;56.54
60319;BME280;46163;52.306;5.634;2022-07-23T02:39:55;101765.34;;;21.65;56.65
60319;BME280;46163;52.306;5.634;2022-07-23T02:42:20;101774.53;;;21.64;56.48
60319;BME280;46163;52.306;5.634;2022-07-23T02:44:46;101784.28;;;21.65;56.76
60319;BME280;46163;52.306;5.634;2022-07-23T02:47:12;101774.44;;;21.59;56.50
60319;BME280;46163;52.306;5.634;2022-07-23T02:49:37;101778.28;;;21.63;56.72
60319;BME280;46163;52.306;5.634;2022-07-23T02:52:03;101773.94;;;21.62;56.20
60319;BME280;46163;52.306;5.634;2022-07-23T02:54:29;101774.19;;;21.60;56.17
60319;BME280;46163;52.306;5.634;2022-07-23T02:56:54;101775.28;;;21.59;56.56
60319;BME280;46163;52.306;5.634;2022-07-23T02:59:19;101772.00;;;21.57;56.68
60319;BME280;46163;52.306;5.634;2022-07-23T03:01:45;101740.06;;;21.37;56.67
60319;BME280;46163;52.306;5.634;2022-07-23T03:04:11;101776.28;;;21.53;56.57
60319;BME280;46163;52.306;5.634;2022-07-23T03:06:37;101799.34;;;21.56;56.49
60319;BME280;46163;52.306;5.634;2022-07-23T03:09:03;101785.22;;;21.54;56.20
60319;BME280;46163;52.306;5.634;2022-07-23T03:11:29;101787.69;;;21.55;56.72
60319;BME280;46163;52.306;5.634;2022-07-23T03:13:55;101795.47;;;21.52;56.75
60319;BME280;46163;52.306;5.634;2022-07-23T03:16:20;101800.66;;;21.53;56.43
60319;BME280;46163;52.306;5.634;2022-07-23T03:18:46;101797.38;;;21.51;56.69
60319;BME280;46163;52.306;5.634;2022-07-23T03:21:11;101792.22;;;21.50;56.44
60319;BME280;46163;52.306;5.634;2022-07-23T03:23:37;101793.84;;;21.51;56.68
60319;BME280;46163;52.306;5.634;2022-07-23T03:26:03;101800.34;;;21.50;56.51
60319;BME280;46163;52.306;5.634;2022-07-23T03:28:28;101806.00;;;21.48;56.48
60319;BME280;46163;52.306;5.634;2022-07-23T03:30:54;101806.00;;;21.48;56.37
60319;BME280;46163;52.306;5.634;2022-07-23T03:33:20;101814.38;;;21.47;56.76
60319;BME280;46163;52.306;5.634;2022-07-23T03:35:47;101811.91;;;21.45;56.47
60319;BME280;46163;52.306;5.634;2022-07-23T03:38:12;101803.22;;;21.43;56.89
60319;BME280;46163;52.306;5.634;2022-07-23T03:40:38;101806.19;;;21.41;56.52
60319;BME280;46163;52.306;5.634;2022-07-23T03:43:04;101807.00;;;21.42;56.70
60319;BME280;46163;52.306;5.634;2022-07-23T03:45:30;101802.41;;;21.42;56.38
60319;BME280;46163;52.306;5.634;2022-07-23T03:47:56;101807.00;;;21.42;56.51
60319;BME280;46163;52.306;5.634;2022-07-23T03:50:22;101804.53;;;21.40;56.68
60319;BME280;46163;52.306;5.634;2022-07-23T03:52:48;101804.53;;;21.40;56.33
60319;BME280;46163;52.306;5.634;2022-07-23T03:55:14;101796.69;;;21.39;56.50
60319;BME280;46163;52.306;5.634;2022-07-23T03:57:40;101801.03;;;21.40;56.74
60319;BME280;46163;52.306;5.634;2022-07-23T04:00:07;101805.06;;;21.37;56.58
60319;BME280;46163;52.306;5.634;2022-07-23T04:02:35;101795.25;;;21.36;56.46
60319;BME280;46163;52.306;5.634;2022-07-23T04:05:01;101797.16;;;21.36;56.77
60319;BME280;46163;52.306;5.634;2022-07-23T04:07:26;101798.78;;;21.37;56.47
60319;BME280;46163;52.306;5.634;2022-07-23T04:09:52;101793.63;;;21.35;56.48
60319;BME280;46163;52.306;5.634;2022-07-23T04:12:18;101789.28;;;21.34;56.82
60319;BME280;46163;52.306;5.634;2022-07-23T04:14:43;101781.41;;;21.33;56.44
60319;BME280;46163;52.306;5.634;2022-07-23T04:17:09;101769.91;;;21.26;56.64
60319;BME280;46163;52.306;5.634;2022-07-23T04:19:34;101780.59;;;21.32;56.66
60319;BME280;46163;52.306;5.634;2022-07-23T04:22:07;101787.66;;;21.33;56.48
60319;BME280;46163;52.306;5.634;2022-07-23T04:24:33;101783.31;;;21.32;56.37
60319;BME280;46163;52.306;5.634;2022-07-23T04:26:58;101784.38;;;21.31;56.57
60319;BME280;46163;52.306;5.634;2022-07-23T04:29:24;101784.63;;;21.30;56.74
60319;BME280;46163;52.306;5.634;2022-07-23T04:31:51;101786.53;;;21.29;56.39
60319;BME280;46163;52.306;5.634;2022-07-23T04:34:17;101769.84;;;21.21;56.58
60319;BME280;46163;52.306;5.634;2022-07-23T04:36:43;101783.81;;;21.29;56.36
60319;BME280;46163;52.306;5.634;2022-07-23T04:39:08;101786.97;;;21.26;56.67
60319;BME280;46163;52.306;5.634;2022-07-23T04:41:34;101786.75;;;21.28;56.46
60319;BME280;46163;52.306;5.634;2022-07-23T04:44:00;101789.94;;;21.25;56.48
60319;BME280;46163;52.306;5.634;2022-07-23T04:46:26;101796.75;;;21.27;56.61
60319;BME280;46163;52.306;5.634;2022-07-23T04:48:51;101796.97;;;21.26;56.43
60319;BME280;46163;52.306;5.634;2022-07-23T04:51:17;101780.91;;;21.19;56.49
60319;BME280;46163;52.306;5.634;2022-07-23T04:53:42;101800.19;;;21.23;56.58
60319;BME280;46163;52.306;5.634;2022-07-23T04:56:08;101807.00;;;21.25;56.46
60319;BME280;46163;52.306;5.634;2022-07-23T04:58:33;101799.94;;;21.24;56.70
60319;BME280;46163;52.306;5.634;2022-07-23T05:00:59;101795.59;;;21.23;56.49
60319;BME280;46163;52.306;5.634;2022-07-23T05:03:25;101792.88;;;21.23;56.71
60319;BME280;46163;52.306;5.634;2022-07-23T05:05:51;101792.88;;;21.23;56.71
60319;BME280;46163;52.306;5.634;2022-07-23T05:08:17;101801.00;;;21.23;56.46
60319;BME280;46163;52.306;5.634;2022-07-23T05:10:44;101806.44;;;21.23;56.35
60319;BME280;46163;52.306;5.634;2022-07-23T05:13:09;101805.88;;;21.21;56.46
60319;BME280;46163;52.306;5.634;2022-07-23T05:15:35;101813.72;;;21.23;56.34
60319;BME280;46163;52.306;5.634;2022-07-23T05:18:00;101811.50;;;21.20;56.29
60319;BME280;46163;52.306;5.634;2022-07-23T05:20:26;101807.97;;;21.19;56.53
60319;BME280;46163;52.306;5.634;2022-07-23T05:22:51;101827.84;;;21.25;56.17
60319;BME280;46163;52.306;5.634;2022-07-23T05:25:17;101820.78;;;21.24;56.09
60319;BME280;46163;52.306;5.634;2022-07-23T05:27:43;101819.97;;;21.23;56.26
60319;BME280;46163;52.306;5.634;2022-07-23T05:30:09;101827.25;;;21.23;56.39
60319;BME280;46163;52.306;5.634;2022-07-23T05:32:34;101816.69;;;21.21;56.39
60319;BME280;46163;52.306;5.634;2022-07-23T05:35:02;101816.19;;;21.24;56.08
60319;BME280;46163;52.306;5.634;2022-07-23T05:37:28;101823.22;;;21.25;56.05
60319;BME280;46163;52.306;5.634;2022-07-23T05:39:53;101822.41;;;21.25;56.27
60319;BME280;46163;52.306;5.634;2022-07-23T05:42:19;101828.66;;;21.25;56.06
60319;BME280;46163;52.306;5.634;2022-07-23T05:44:44;101818.50;;;21.15;55.96
60319;BME280;46163;52.306;5.634;2022-07-23T05:47:10;101833.00;;;21.26;56.31
60319;BME280;46163;52.306;5.634;2022-07-23T05:49:37;101837.38;;;21.27;56.54
60319;BME280;46163;52.306;5.634;2022-07-23T05:52:07;101833.59;;;21.28;56.06
60319;BME280;46163;52.306;5.634;2022-07-23T05:54:36;101836.28;;;21.28;56.26
60319;BME280;46163;52.306;5.634;2022-07-23T05:57:02;101834.88;;;21.26;55.99
60319;BME280;46163;52.306;5.634;2022-07-23T05:59:28;101839.25;;;21.27;56.49
60319;BME280;46163;52.306;5.634;2022-07-23T06:01:53;101839.59;;;21.30;56.51
60319;BME280;46163;52.306;5.634;2022-07-23T06:04:19;101832.78;;;21.28;56.20
60319;BME280;46163;52.306;5.634;2022-07-23T06:06:44;101842.31;;;21.30;56.52
60319;BME280;46163;52.306;5.634;2022-07-23T06:09:10;101843.94;;;21.31;56.45
60319;BME280;46163;52.306;5.634;2022-07-23T06:11:38;101846.41;;;21.33;56.46
60319;BME280;46163;52.306;5.634;2022-07-23T06:14:04;101842.88;;;21.32;56.38
60319;BME280;46163;52.306;5.634;2022-07-23T06:16:29;101845.31;;;21.34;56.22
60319;BME280;46163;52.306;5.634;2022-07-23T06:18:55;101843.44;;;21.34;56.06
60319;BME280;46163;52.306;5.634;2022-07-23T06:21:20;101845.66;;;21.37;56.04
60319;BME280;46163;52.306;5.634;2022-07-23T06:23:46;101838.84;;;21.35;55.87
60319;BME280;46163;52.306;5.634;2022-07-23T06:26:11;101846.22;;;21.39;56.25
60319;BME280;46163;52.306;5.634;2022-07-23T06:28:36;101846.53;;;21.43;56.09
60319;BME280;46163;52.306;5.634;2022-07-23T06:31:02;101843.03;;;21.42;55.87
60319;BME280;46163;52.306;5.634;2022-07-23T06:33:27;101846.06;;;21.46;56.16
60319;BME280;46163;52.306;5.634;2022-07-23T06:35:53;101853.94;;;21.48;55.74
60319;BME280;46163;52.306;5.634;2022-07-23T06:38:18;101847.44;;;21.49;55.94
60319;BME280;46163;52.306;5.634;2022-07-23T06:40:44;101845.88;;;21.53;55.93
60319;BME280;46163;52.306;5.634;2022-07-23T06:43:10;101834.16;;;21.47;55.68
60319;BME280;46163;52.306;5.634;2022-07-23T06:45:36;101845.41;;;21.56;55.55
60319;BME280;46163;52.306;5.634;2022-07-23T06:48:01;101846.78;;;21.58;55.71
60319;BME280;46163;52.306;5.634;2022-07-23T06:50:28;101851.38;;;21.58;55.55
60319;BME280;46163;52.306;5.634;2022-07-23T06:52:54;101854.66;;;21.60;55.79
60319;BME280;46163;52.306;5.634;2022-07-23T06:55:19;101854.38;;;21.61;55.75
60319;BME280;46163;52.306;5.634;2022-07-23T06:57:44;101861.44;;;21.62;55.60
60319;BME280;46163;52.306;5.634;2022-07-23T07:00:10;101868.28;;;21.65;55.65
60319;BME280;46163;52.306;5.634;2022-07-23T07:02:36;101868.84;;;21.67;55.64
60319;BME280;46163;52.306;5.634;2022-07-23T07:05:02;101866.44;;;21.70;55.48
60319;BME280;46163;52.306;5.634;2022-07-23T07:07:27;101872.19;;;21.74;55.47
60319;BME280;46163;52.306;5.634;2022-07-23T07:09:53;101865.69;;;21.75;55.59
60319;BME280;46163;52.306;5.634;2022-07-23T07:12:19;101872.25;;;21.79;55.59
60319;BME280;46163;52.306;5.634;2022-07-23T07:14:44;101870.94;;;21.82;55.55
60319;BME280;46163;52.306;5.634;2022-07-23T07:17:09;101871.25;;;21.85;55.57
60319;BME280;46163;52.306;5.634;2022-07-23T07:19:36;101871.56;;;21.89;55.49
60319;BME280;46163;52.306;5.634;2022-07-23T07:22:02;101868.94;;;21.94;55.26
60319;BME280;46163;52.306;5.634;2022-07-23T07:24:27;101864.31;;;21.94;55.30
60319;BME280;46163;52.306;5.634;2022-07-23T07:26:53;101862.50;;;22.00;54.83
60319;BME280;46163;52.306;5.634;2022-07-23T07:29:18;101862.25;;;22.01;55.26
60319;BME280;46163;52.306;5.634;2022-07-23T07:31:44;101862.56;;;22.05;54.90
60319;BME280;46163;52.306;5.634;2022-07-23T07:34:10;101866.06;;;22.06;54.96
60319;BME280;46163;52.306;5.634;2022-07-23T07:36:35;101867.75;;;22.07;54.79
60319;BME280;46163;52.306;5.634;2022-07-23T07:39:03;101872.16;;;22.13;55.01
60319;BME280;46163;52.306;5.634;2022-07-23T07:41:30;101885.78;;;22.18;54.66
60319;BME280;46163;52.306;5.634;2022-07-23T07:43:56;101895.31;;;22.20;54.79
60319;BME280;46163;52.306;5.634;2022-07-23T07:46:22;101895.88;;;22.22;54.95
60319;BME280;46163;52.306;5.634;2022-07-23T07:48:50;101894.56;;;22.25;54.77
60319;BME280;46163;52.306;5.634;2022-07-23T07:51:15;101894.88;;;22.28;54.42
60319;BME280;46163;52.306;5.634;2022-07-23T07:53:41;101897.59;;;22.28;54.76
60319;BME280;46163;52.306;5.634;2022-07-23T07:56:07;101897.06;;;22.32;54.52
60319;BME280;46163;52.306;5.634;2022-07-23T07:58:32;101904.97;;;22.33;54.57
60319;BME280;46163;52.306;5.634;2022-07-23T08:00:58;101896.19;;;22.26;54.16
60319;BME280;46163;52.306;5.634;2022-07-23T08:03:23;101916.63;;;22.34;54.07
60319;BME280;46163;52.306;5.634;2022-07-23T08:05:49;101912.25;;;22.33;53.67
60319;BME280;46163;52.306;5.634;2022-07-23T08:08:15;101905.78;;;22.34;54.22
60319;BME280;46163;52.306;5.634;2022-07-23T08:10:41;101911.22;;;22.34;54.06
60319;BME280;46163;52.306;5.634;2022-07-23T08:13:07;101912.84;;;22.35;53.95
60319;BME280;46163;52.306;5.634;2022-07-23T08:15:33;101916.38;;;22.35;53.98
60319;BME280;46163;52.306;5.634;2022-07-23T08:17:59;101918.28;;;22.35;53.88
60319;BME280;46163;52.306;5.634;2022-07-23T08:20:25;101917.44;;;22.34;53.63
60319;BME280;46163;52.306;5.634;2022-07-23T08:22:55;101912.84;;;22.35;53.71
60319;BME280;46163;52.306;5.634;2022-07-23T08:27:51;101916.38;;;22.35;53.55
60319;BME280;46163;52.306;5.634;2022-07-23T08:30:17;101918.84;;;22.37;53.64
60319;BME280;46163;52.306;5.634;2022-07-23T08:35:17;101916.41;;;22.40;53.49
60319;BME280;46163;52.306;5.634;2022-07-23T08:37:43;101907.19;;;22.41;53.68
60319;BME280;46163;52.306;5.634;2022-07-23T08:42:35;101911.63;;;22.47;53.79
60319;BME280;46163;52.306;5.634;2022-07-23T08:45:02;101913.25;;;22.48;53.75
60319;BME280;46163;52.306;5.634;2022-07-23T08:47:28;101915.47;;;22.51;53.32
60319;BME280;46163;52.306;5.634;2022-07-23T08:49:56;101917.13;;;22.52;53.36
60319;BME280;46163;52.306;5.634;2022-07-23T08:52:22;101916.31;;;22.52;53.52
60319;BME280;46163;52.306;5.634;2022-07-23T08:54:48;101910.09;;;22.56;53.59
60319;BME280;46163;52.306;5.634;2022-07-23T08:57:14;101919.88;;;22.57;53.20
60319;BME280;46163;52.306;5.634;2022-07-23T08:59:40;101923.16;;;22.60;53.11
60319;BME280;46163;52.306;5.634;2022-07-23T09:02:06;101919.63;;;22.59;53.63
60319;BME280;46163;52.306;5.634;2022-07-23T09:04:32;101919.94;;;22.63;53.16
60319;BME280;46163;52.306;5.634;2022-07-23T09:06:58;101911.28;;;22.66;53.38
60319;BME280;46163;52.306;5.634;2022-07-23T09:09:23;101912.44;;;22.70;53.16
60319;BME280;46163;52.306;5.634;2022-07-23T09:12:05;101917.31;;;22.73;53.22
60319;BME280;46163;52.306;5.634;2022-07-23T09:14:44;101908.09;;;22.74;53.20
60319;BME280;46163;52.306;5.634;2022-07-23T09:17:15;101914.94;;;22.76;53.43
60319;BME280;46163;52.306;5.634;2022-07-23T09:19:42;101904.31;;;22.75;53.02
60319;BME280;46163;52.306;5.634;2022-07-23T09:22:22;101915.53;;;22.83;53.12
60319;BME280;46163;52.306;5.634;2022-07-23T09:27:56;101928.38;;;22.88;53.08
60319;BME280;46163;52.306;5.634;2022-07-23T09:30:24;101924.03;;;22.87;52.69
60319;BME280;46163;52.306;5.634;2022-07-23T09:33:12;101919.97;;;22.90;52.74
60319;BME280;46163;52.306;5.634;2022-07-23T09:35:52;101922.44;;;22.91;52.90
60319;BME280;46163;52.306;5.634;2022-07-23T09:38:20;101924.88;;;22.93;52.79
60319;BME280;46163;52.306;5.634;2022-07-23T09:40:47;101925.47;;;22.95;52.97
60319;BME280;46163;52.306;5.634;2022-07-23T09:43:29;101916.53;;;22.99;52.74
60319;BME280;46163;52.306;5.634;2022-07-23T09:46:22;101916.28;;;23.01;52.78
60319;BME280;46163;52.306;5.634;2022-07-23T09:48:55;101923.91;;;23.04;52.60
60319;BME280;46163;52.306;5.634;2022-07-23T09:51:24;101922.03;;;23.04;52.80
60319;BME280;46163;52.306;5.634;2022-07-23T09:54:02;101929.91;;;23.06;52.99
60319;BME280;46163;52.306;5.634;2022-07-23T09:56:28;101922.88;;;23.10;52.91
60319;BME280;46163;52.306;5.634;2022-07-23T09:58:54;101916.69;;;23.15;52.75
60319;BME280;46163;52.306;5.634;2022-07-23T10:01:34;101901.94;;;23.05;52.63
60319;BME280;46163;52.306;5.634;2022-07-23T10:04:01;101922.72;;;23.22;52.45
60319;BME280;46163;52.306;5.634;2022-07-23T10:06:27;101908.47;;;23.09;52.45
60319;BME280;46163;52.306;5.634;2022-07-23T10:08:57;101929.78;;;23.23;52.56
60319;BME280;46163;52.306;5.634;2022-07-23T10:11:24;101935.25;;;23.28;51.98
60319;BME280;46163;52.306;5.634;2022-07-23T10:13:49;101928.75;;;23.29;51.96
60319;BME280;46163;52.306;5.634;2022-07-23T10:16:15;101917.88;;;23.29;51.33
60319;BME280;46163;52.306;5.634;2022-07-23T10:18:41;101926.31;;;23.32;51.48
60319;BME280;46163;52.306;5.634;2022-07-23T10:21:07;101916.53;;;23.31;50.67
60319;BME280;46163;52.306;5.634;2022-07-23T10:23:40;101917.09;;;23.33;50.65
60319;BME280;46163;52.306;5.634;2022-07-23T10:26:21;101918.44;;;23.31;50.18
60319;BME280;46163;52.306;5.634;2022-07-23T10:31:33;101914.66;;;23.32;50.00
60319;BME280;46163;52.306;5.634;2022-07-23T10:36:59;101911.13;;;23.36;49.91
60319;BME280;46163;52.306;5.634;2022-07-23T10:39:32;101906.22;;;23.28;50.10
60319;BME280;46163;52.306;5.634;2022-07-23T10:42:12;101927.19;;;23.38;49.76
60319;BME280;46163;52.306;5.634;2022-07-23T10:44:43;101920.69;;;23.39;49.70
60319;BME280;46163;52.306;5.634;2022-07-23T10:47:10;101920.41;;;23.40;49.80
60319;BME280;46163;52.306;5.634;2022-07-23T10:49:43;101919.06;;;23.43;50.00
60319;BME280;46163;52.306;5.634;2022-07-23T10:52:26;101920.47;;;23.46;49.76
60319;BME280;46163;52.306;5.634;2022-07-23T10:54:53;101918.56;;;23.46;49.32
60319;BME280;46163;52.306;5.634;2022-07-23T10:57:28;101912.59;;;23.49;49.16
60319;BME280;46163;52.306;5.634;2022-07-23T11:02:28;101918.94;;;23.60;49.83
60319;BME280;46163;52.306;5.634;2022-07-23T11:05:03;101914.66;;;23.64;49.66
60319;BME280;46163;52.306;5.634;2022-07-23T11:07:29;101919.53;;;23.67;49.65
60319;BME280;46163;52.306;5.634;2022-07-23T11:09:55;101914.38;;;23.71;49.87
60319;BME280;46163;52.306;5.634;2022-07-23T11:15:03;101900.25;;;23.68;49.83
60319;BME280;46163;52.306;5.634;2022-07-23T11:17:31;101901.38;;;23.73;49.57
60319;BME280;46163;52.306;5.634;2022-07-23T11:25:02;101906.28;;;23.76;49.02
60319;BME280;46163;52.306;5.634;2022-07-23T11:28:10;101897.59;;;23.79;49.20
60319;BME280;46163;52.306;5.634;2022-07-23T11:33:21;101905.75;;;23.79;49.23
60319;BME280;46163;52.306;5.634;2022-07-23T11:35:50;101916.63;;;23.79;48.94
60319;BME280;46163;52.306;5.634;2022-07-23T11:38:24;101914.44;;;23.76;49.05
60319;BME280;46163;52.306;5.634;2022-07-23T11:40:54;101909.00;;;23.76;48.67
60319;BME280;46163;52.306;5.634;2022-07-23T11:43:21;101920.16;;;23.79;48.64
60319;BME280;46163;52.306;5.634;2022-07-23T11:45:52;101904.13;;;23.78;48.57
60319;BME280;46163;52.306;5.634;2022-07-23T11:48:29;101913.38;;;23.82;48.48
60319;BME280;46163;52.306;5.634;2022-07-23T11:50:56;101912.31;;;23.83;48.13
60319;BME280;46163;52.306;5.634;2022-07-23T11:55:52;101911.78;;;23.86;48.06
60319;BME280;46163;52.306;5.634;2022-07-23T11:58:18;101911.50;;;23.87;47.84
60319;BME280;46163;52.306;5.634;2022-07-23T12:00:43;101912.84;;;23.85;48.04
60319;BME280;46163;52.306;5.634;2022-07-23T12:03:09;101915.84;;;23.88;48.07
60319;BME280;46163;52.306;5.634;2022-07-23T12:05:36;101910.47;;;23.93;48.37
60319;BME280;46163;52.306;5.634;2022-07-23T12:08:04;101905.28;;;23.92;48.31
60319;BME280;46163;52.306;5.634;2022-07-23T12:10:36;101903.34;;;23.87;48.02
60319;BME280;46163;52.306;5.634;2022-07-23T12:13:08;101906.66;;;23.89;48.12
60319;BME280;46163;52.306;5.634;2022-07-23T12:15:40;101905.56;;;23.90;48.20
60319;BME280;46163;52.306;5.634;2022-07-23T12:18:09;101913.41;;;23.87;48.06
60319;BME280;46163;52.306;5.634;2022-07-23T12:20:46;101908.00;;;23.92;48.34
60319;BME280;46163;52.306;5.634;2022-07-23T12:23:14;101906.66;;;23.94;48.08
60319;BME280;46163;52.306;5.634;2022-07-23T12:25:42;101906.38;;;23.96;48.18
60319;BME280;46163;52.306;5.634;2022-07-23T12:28:12;101900.44;;;23.99;48.28
60319;BME280;46163;52.306;5.634;2022-07-23T12:30:42;101904.78;;;24.00;48.23
60319;BME280;46163;52.306;5.634;2022-07-23T12:33:11;101900.44;;;23.99;48.34
60319;BME280;46163;52.306;5.634;2022-07-23T12:35:45;101903.16;;;24.04;48.48
60319;BME280;46163;52.306;5.634;2022-07-23T12:38:12;101900.75;;;24.08;48.57
60319;BME280;46163;52.306;5.634;2022-07-23T12:40:44;101901.84;;;24.12;48.78
60319;BME280;46163;52.306;5.634;2022-07-23T12:46:02;101893.97;;;24.15;49.15
60319;BME280;46163;52.306;5.634;2022-07-23T12:48:29;101883.38;;;24.19;49.23
60319;BME280;46163;52.306;5.634;2022-07-23T12:51:03;101885.81;;;24.20;48.92
60319;BME280;46163;52.306;5.634;2022-07-23T12:56:15;101884.22;;;24.24;48.96
60319;BME280;46163;52.306;5.634;2022-07-23T13:03:59;101889.66;;;24.30;49.33
60319;BME280;46163;52.306;5.634;2022-07-23T13:06:25;101873.34;;;24.30;48.92
60319;BME280;46163;52.306;5.634;2022-07-23T13:08:51;101885.38;;;24.34;48.94
60319;BME280;46163;52.306;5.634;2022-07-23T13:11:17;101887.00;;;24.35;49.09
60319;BME280;46163;52.306;5.634;2022-07-23T13:13:43;101880.19;;;24.37;49.00
60319;BME280;46163;52.306;5.634;2022-07-23T13:16:08;101876.38;;;24.38;48.85
60319;BME280;46163;52.306;5.634;2022-07-23T13:18:34;101880.75;;;24.39;48.99
60319;BME280;46163;52.306;5.634;2022-07-23T13:21:00;101879.41;;;24.42;48.86
60319;BME280;46163;52.306;5.634;2022-07-23T13:23:26;101887.03;;;24.45;49.12
60319;BME280;46163;52.306;5.634;2022-07-23T13:25:52;101885.38;;;24.49;49.03
60319;BME280;46163;52.306;5.634;2022-07-23T13:28:19;101883.25;;;24.51;49.03
60319;BME280;46163;52.306;5.634;2022-07-23T13:30:46;101879.16;;;24.53;49.07
60319;BME280;46163;52.306;5.634;2022-07-23T13:33:12;101884.31;;;24.55;48.97